Time;durP1;ratioP1;P1;durP2;ratioP2;P2;SDS_P1;SDS_P2;PMS_P1;PMS_P2;Temp;Humidity;BMP_temperature;BMP_pressure;BME280_temperature;BME280_humidity;BME280_pressure;Samples;Min_cycle;Max_cycle;Signal;HPM_P1;HPM_P2
2022/06/15 00:01:05;;;;;;;13.07;12.57;;;24.10;55.30;;;;;;5051795;28;20535;-70
2022/06/15 00:03:36;;;;;;;12.30;11.80;;;24.00;55.20;;;;;;5051846;28;20539;-69
2022/06/15 00:06:09;;;;;;;12.77;12.20;;;24.00;55.10;;;;;;5051912;28;20488;-70
2022/06/15 00:08:36;;;;;;;12.93;12.43;;;24.00;55.10;;;;;;5051798;28;20512;-70
2022/06/15 00:11:08;;;;;;;12.20;11.80;;;24.00;55.30;;;;;;5051667;28;20485;-70
2022/06/15 00:13:35;;;;;;;13.17;12.67;;;24.00;55.30;;;;;;5051869;28;20491;-70
2022/06/15 00:16:04;;;;;;;12.50;12.10;;;24.00;55.30;;;;;;5051848;28;20454;-70
2022/06/15 00:18:31;;;;;;;12.27;11.97;;;24.00;55.40;;;;;;5051755;28;20940;-70
2022/06/15 00:20:59;;;;;;;13.27;12.60;;;24.00;55.50;;;;;;5051347;28;20520;-70
2022/06/15 00:23:28;;;;;;;12.67;12.27;;;24.00;55.40;;;;;;5058186;28;20531;-70
2022/06/15 00:25:57;;;;;;;13.70;13.20;;;24.00;55.40;;;;;;5071526;28;20447;-70
2022/06/15 00:28:25;;;;;;;13.00;12.53;;;23.90;55.20;;;;;;5070868;28;20908;-70
2022/06/15 00:30:51;;;;;;;12.47;12.03;;;23.90;55.20;;;;;;5071471;28;20462;-70
2022/06/15 00:33:21;;;;;;;13.07;12.47;;;23.80;55.20;;;;;;5070992;28;20443;-70
2022/06/15 00:35:55;;;;;;;14.40;13.93;;;23.80;55.90;;;;;;5071552;28;20447;-70
2022/06/15 00:38:22;;;;;;;12.67;12.20;;;23.80;55.40;;;;;;5071627;28;20701;-70
2022/06/15 00:40:50;;;;;;;14.40;13.53;;;23.80;55.50;;;;;;5071278;28;20474;-70
2022/06/15 00:43:35;;;;;;;12.47;12.07;;;23.80;55.60;;;;;;5066990;28;20594;-70
2022/06/15 00:46:12;;;;;;;12.07;11.57;;;23.80;55.60;;;;;;5051374;28;20444;-70
2022/06/15 00:48:39;;;;;;;14.60;14.10;;;23.80;55.70;;;;;;5051379;28;20537;-70
2022/06/15 00:51:06;;;;;;;12.97;12.47;;;23.80;55.70;;;;;;5051225;28;20522;-70
2022/06/15 00:53:33;;;;;;;12.87;12.37;;;23.80;55.80;;;;;;5057068;28;20493;-70
2022/06/15 00:56:01;;;;;;;12.17;11.70;;;23.80;55.80;;;;;;5071375;28;20538;-70
2022/06/15 00:58:28;;;;;;;12.70;12.30;;;23.80;55.90;;;;;;5071340;28;20470;-69
2022/06/15 01:00:56;;;;;;;13.20;12.70;;;23.80;55.90;;;;;;5071213;28;20568;-69
2022/06/15 01:03:24;;;;;;;12.60;12.20;;;23.70;55.90;;;;;;5071263;28;20496;-69
2022/06/15 01:06:04;;;;;;;12.70;12.30;;;23.70;56.50;;;;;;5071331;28;20497;-70
2022/06/15 01:08:38;;;;;;;13.13;12.53;;;23.60;56.00;;;;;;5071146;28;20561;-70
2022/06/15 01:11:26;;;;;;;13.77;13.27;;;23.70;56.10;;;;;;5071102;28;20550;-70
2022/06/15 01:14:31;;;;;;;12.57;12.03;;;23.70;56.20;;;;;;5057469;28;20969;-70
2022/06/15 01:17:08;;;;;;;12.07;11.70;;;23.70;56.30;;;;;;5071195;28;20451;-70
2022/06/15 01:20:02;;;;;;;12.13;11.70;;;23.70;56.30;;;;;;5071098;28;20435;-70
2022/06/15 01:22:45;;;;;;;12.63;11.93;;;23.70;56.40;;;;;;5056737;28;20476;-70
2022/06/15 01:25:40;;;;;;;13.07;12.37;;;23.70;56.60;;;;;;5051120;28;20635;-70
2022/06/15 01:28:41;;;;;;;12.53;12.13;;;23.70;57.00;;;;;;5048452;28;20586;-70
2022/06/15 01:31:19;;;;;;;12.33;11.93;;;23.60;57.20;;;;;;5050811;28;20547;-70
2022/06/15 01:33:58;;;;;;;12.60;12.20;;;23.60;56.80;;;;;;5051041;28;20510;-70
2022/06/15 01:36:34;;;;;;;12.30;11.90;;;23.60;56.80;;;;;;5051114;28;21003;-70
2022/06/15 01:39:09;;;;;;;12.30;11.90;;;23.60;56.90;;;;;;5054776;28;20475;-70
2022/06/15 01:41:41;;;;;;;11.93;11.53;;;23.50;56.80;;;;;;5074367;28;20553;-70
2022/06/15 01:44:13;;;;;;;12.80;12.30;;;23.50;57.50;;;;;;5074541;28;20485;-70
2022/06/15 01:46:44;;;;;;;12.83;12.43;;;23.50;57.10;;;;;;5074487;28;20814;-70
2022/06/15 01:49:17;;;;;;;13.03;12.43;;;23.50;57.00;;;;;;5070132;28;20571;-69
2022/06/15 01:51:45;;;;;;;12.90;12.47;;;23.50;57.10;;;;;;5054930;28;20554;-69
2022/06/15 01:54:17;;;;;;;13.80;13.20;;;23.60;57.20;;;;;;5054459;28;20498;-70
2022/06/15 01:56:47;;;;;;;12.50;12.00;;;23.60;57.70;;;;;;5054438;28;20531;-69
2022/06/15 01:59:19;;;;;;;12.57;12.00;;;23.60;57.10;;;;;;5056013;28;20497;-69
2022/06/15 02:01:53;;;;;;;13.93;13.23;;;23.60;57.20;;;;;;5054133;28;20906;-70
2022/06/15 02:04:27;;;;;;;12.57;12.17;;;23.60;57.20;;;;;;5054299;28;20471;-69
2022/06/15 02:07:04;;;;;;;12.83;12.43;;;23.60;57.70;;;;;;5054014;28;20448;-69
2022/06/15 02:09:40;;;;;;;13.37;12.87;;;23.50;57.20;;;;;;5060026;28;20575;-69
2022/06/15 02:12:09;;;;;;;13.90;13.30;;;23.60;57.30;;;;;;5074127;28;20536;-69
2022/06/15 02:14:42;;;;;;;13.97;13.47;;;23.60;57.40;;;;;;5073894;28;20938;-70
2022/06/15 02:17:17;;;;;;;12.70;12.30;;;23.60;57.40;;;;;;5074089;28;20482;-69
2022/06/15 02:19:47;;;;;;;12.60;12.10;;;23.60;57.50;;;;;;5065177;28;20523;-69
2022/06/15 02:22:17;;;;;;;13.23;12.67;;;23.60;57.60;;;;;;5054119;28;20550;-70
2022/06/15 02:24:47;;;;;;;13.10;12.70;;;23.60;57.60;;;;;;5053739;28;20480;-69
2022/06/15 02:27:15;;;;;;;13.23;12.73;;;23.60;57.60;;;;;;5053799;28;20935;-69
2022/06/15 02:29:45;;;;;;;12.83;12.43;;;23.60;57.70;;;;;;5060516;28;20514;-69
2022/06/15 02:32:17;;;;;;;11.77;11.37;;;23.60;57.60;;;;;;5073549;28;20530;-69
2022/06/15 02:34:43;;;;;;;13.03;12.63;;;23.50;57.50;;;;;;5073773;28;20522;-69
2022/06/15 02:37:12;;;;;;;12.90;12.40;;;23.50;57.60;;;;;;5073527;28;20477;-69
2022/06/15 02:39:39;;;;;;;12.80;12.40;;;23.50;57.60;;;;;;5073527;28;20467;-69
2022/06/15 02:42:24;;;;;;;12.90;12.40;;;23.50;57.60;;;;;;5073376;28;20502;-69
2022/06/15 02:44:53;;;;;;;12.90;12.40;;;23.50;57.70;;;;;;5073490;28;20818;-69
2022/06/15 02:47:23;;;;;;;12.90;12.50;;;23.50;57.70;;;;;;5073495;28;20439;-69
2022/06/15 02:49:51;;;;;;;14.27;13.67;;;23.50;57.70;;;;;;5072681;28;20518;-69
2022/06/15 02:52:20;;;;;;;13.80;13.03;;;23.50;57.70;;;;;;5072835;28;20534;-69
2022/06/15 02:54:49;;;;;;;12.57;12.17;;;23.50;57.70;;;;;;5073155;28;20950;-69
2022/06/15 02:57:18;;;;;;;13.07;12.67;;;23.50;58.30;;;;;;5073175;28;20479;-69
2022/06/15 02:59:46;;;;;;;13.30;12.80;;;23.50;57.80;;;;;;5073118;28;20447;-72
2022/06/15 03:02:14;;;;;;;13.70;12.90;;;23.50;57.80;;;;;;5072977;28;20951;-71
2022/06/15 03:04:43;;;;;;;14.80;14.00;;;23.50;57.80;;;;;;5073031;28;20443;-70
2022/06/15 03:07:11;;;;;;;14.13;13.67;;;23.50;58.40;;;;;;5072868;28;20451;-69
2022/06/15 03:09:37;;;;;;;14.90;14.10;;;23.50;57.90;;;;;;5066660;28;20555;-69
2022/06/15 03:12:05;;;;;;;13.67;13.17;;;23.50;58.00;;;;;;5052865;28;20471;-70
2022/06/15 03:14:32;;;;;;;13.63;13.10;;;23.50;57.90;;;;;;5052828;28;20484;-69
2022/06/15 03:16:59;;;;;;;13.50;13.00;;;23.40;57.90;;;;;;5052938;28;20510;-69
2022/06/15 03:19:26;;;;;;;13.30;12.80;;;23.40;57.90;;;;;;5052667;28;20828;-69
2022/06/15 03:21:55;;;;;;;13.47;13.00;;;23.40;58.00;;;;;;5113915;22;20524;-68
2022/06/15 03:24:22;;;;;;;14.10;13.40;;;23.40;58.10;;;;;;5104698;28;20473;-65
2022/06/15 03:26:49;;;;;;;14.77;14.23;;;23.30;58.20;;;;;;5113207;28;20441;-65
2022/06/15 03:29:15;;;;;;;13.70;13.30;;;23.20;58.10;;;;;;5109918;28;20480;-65
2022/06/15 03:31:42;;;;;;;14.50;14.00;;;23.10;58.00;;;;;;5092668;28;20501;-65
2022/06/15 03:34:09;;;;;;;15.50;14.77;;;23.10;58.00;;;;;;5088194;28;21033;-65
2022/06/15 03:36:36;;;;;;;14.80;14.30;;;23.00;58.00;;;;;;5072337;28;20527;-66
2022/06/15 03:39:04;;;;;;;14.97;14.30;;;22.90;58.50;;;;;;5072333;28;20482;-65
2022/06/15 03:41:31;;;;;;;14.50;14.00;;;22.90;58.00;;;;;;5052039;28;20468;-65
2022/06/15 03:43:58;;;;;;;15.00;14.27;;;22.90;58.10;;;;;;5052249;28;20487;-65
2022/06/15 03:46:25;;;;;;;15.20;14.57;;;22.90;58.10;;;;;;5052245;28;20870;-65
2022/06/15 03:48:52;;;;;;;14.60;14.10;;;22.90;58.10;;;;;;5052028;28;20896;-65
2022/06/15 03:51:19;;;;;;;14.07;13.67;;;22.80;58.10;;;;;;5089220;28;20502;-65
2022/06/15 03:53:46;;;;;;;15.00;14.47;;;22.80;58.00;;;;;;5092314;28;20485;-65
2022/06/15 03:56:14;;;;;;;14.97;14.47;;;22.80;58.10;;;;;;5092258;28;20530;-64
2022/06/15 03:58:41;;;;;;;14.87;14.33;;;22.80;58.20;;;;;;5092383;28;20445;-64
2022/06/15 04:01:08;;;;;;;15.40;14.80;;;22.80;58.30;;;;;;5074939;28;20920;-64
2022/06/15 04:03:35;;;;;;;15.60;15.00;;;22.70;58.30;;;;;;5071731;28;20847;-65
2022/06/15 04:06:02;;;;;;;15.20;14.60;;;22.70;58.80;;;;;;5072017;28;20872;-65
2022/06/15 04:08:38;;;;;;;15.90;15.30;;;22.70;58.30;;;;;;5071919;28;20435;-64
2022/06/15 04:11:07;;;;;;;15.70;15.10;;;22.70;58.20;;;;;;5087585;28;20462;-65
2022/06/15 04:13:36;;;;;;;15.60;15.00;;;22.70;58.30;;;;;;5091930;28;20446;-65
2022/06/15 04:16:06;;;;;;;15.63;15.10;;;22.70;58.30;;;;;;5091992;28;20556;-65
2022/06/15 04:18:33;;;;;;;16.43;15.93;;;22.60;58.30;;;;;;5092175;28;20450;-66
2022/06/15 04:21:00;;;;;;;16.97;16.30;;;22.60;58.30;;;;;;5076291;28;21044;-64
2022/06/15 04:23:26;;;;;;;17.17;16.47;;;22.70;58.50;;;;;;5072002;28;20558;-65
2022/06/15 04:25:57;;;;;;;16.40;15.70;;;22.70;58.80;;;;;;5088963;28;20478;-65
2022/06/15 04:28:29;;;;;;;16.80;15.80;;;22.70;60.40;;;;;;5091982;28;20460;-65
2022/06/15 04:30:57;;;;;;;16.97;16.17;;;22.70;63.00;;;;;;5077015;28;20499;-65
2022/06/15 04:33:27;;;;;;;17.83;16.73;;;22.70;66.90;;;;;;5071636;28;20525;-65
2022/06/15 04:35:54;;;;;;;16.77;15.90;;;22.70;67.50;;;;;;5071767;28;20808;-66
2022/06/15 04:38:21;;;;;;;17.63;16.60;;;22.70;69.80;;;;;;5071942;28;20839;-68
2022/06/15 04:40:48;;;;;;;17.40;16.43;;;22.70;70.70;;;;;;5078311;28;20469;-66
2022/06/15 04:43:15;;;;;;;16.40;15.80;;;22.80;69.20;;;;;;5071698;28;20538;-66
2022/06/15 04:45:42;;;;;;;17.30;16.60;;;22.80;67.30;;;;;;5071687;28;20442;-67
2022/06/15 04:48:10;;;;;;;17.40;16.40;;;22.90;66.50;;;;;;5071507;28;20490;-66
2022/06/15 04:50:38;;;;;;;19.00;18.10;;;22.90;65.80;;;;;;5071173;28;20560;-67
2022/06/15 04:53:06;;;;;;;17.27;16.50;;;22.90;65.30;;;;;;5071515;28;20534;-67
2022/06/15 04:55:34;;;;;;;17.43;16.63;;;22.90;64.90;;;;;;5071446;28;20824;-66
2022/06/15 04:58:01;;;;;;;18.47;17.50;;;22.90;64.70;;;;;;5071462;28;20529;-66
2022/06/15 05:00:31;;;;;;;16.97;16.27;;;22.90;64.80;;;;;;5071157;28;20499;-67
2022/06/15 05:02:58;;;;;;;16.73;16.10;;;22.90;64.50;;;;;;5071356;28;20443;-66
2022/06/15 05:05:26;;;;;;;18.60;17.80;;;22.90;64.40;;;;;;5071297;28;20444;-66
2022/06/15 05:07:54;;;;;;;18.53;17.73;;;22.90;64.20;;;;;;5071368;28;20494;-66
2022/06/15 05:10:23;;;;;;;17.00;16.40;;;22.90;64.10;;;;;;5070948;28;20566;-66
2022/06/15 05:12:50;;;;;;;17.90;17.10;;;22.90;63.90;;;;;;5071506;28;20475;-67
2022/06/15 05:15:18;;;;;;;17.57;16.60;;;23.00;63.90;;;;;;5074391;28;20525;-66
2022/06/15 05:17:46;;;;;;;17.63;17.13;;;22.90;63.90;;;;;;5075115;28;20548;-66
2022/06/15 05:20:15;;;;;;;17.20;16.53;;;23.00;63.50;;;;;;5074816;28;20817;-66
2022/06/15 05:22:44;;;;;;;16.70;16.20;;;22.90;63.40;;;;;;5075054;28;20551;-66
2022/06/15 05:25:11;;;;;;;19.33;18.43;;;23.00;63.20;;;;;;5075561;28;20794;-66
2022/06/15 05:27:39;;;;;;;18.10;17.47;;;23.00;63.90;;;;;;5075231;28;20957;-66
2022/06/15 05:30:07;;;;;;;17.93;17.20;;;23.00;63.10;;;;;;5074757;28;20526;-66
2022/06/15 05:32:35;;;;;;;16.33;15.83;;;23.00;63.30;;;;;;5074932;28;20471;-66
2022/06/15 05:35:02;;;;;;;17.60;17.00;;;23.00;63.10;;;;;;5074970;28;20535;-66
2022/06/15 05:37:30;;;;;;;16.80;16.20;;;23.00;63.10;;;;;;5074928;28;20454;-66
2022/06/15 05:39:59;;;;;;;18.10;17.30;;;23.00;63.10;;;;;;5074694;28;20439;-66
2022/06/15 05:42:28;;;;;;;17.67;17.07;;;23.00;63.80;;;;;;5074881;28;20502;-67
2022/06/15 05:44:55;;;;;;;18.93;18.07;;;23.00;62.80;;;;;;5074826;28;20454;-67
2022/06/15 05:47:22;;;;;;;17.70;17.20;;;23.00;62.70;;;;;;5074651;28;20475;-66
2022/06/15 05:49:49;;;;;;;17.37;16.73;;;23.00;62.60;;;;;;5074256;28;20521;-66
2022/06/15 05:52:16;;;;;;;16.93;16.33;;;23.00;62.40;;;;;;5074453;28;21012;-67
2022/06/15 05:54:43;;;;;;;17.03;16.43;;;23.00;62.60;;;;;;5074655;28;20439;-66
2022/06/15 05:57:12;;;;;;;17.27;16.73;;;23.00;62.50;;;;;;5074557;28;20469;-67
2022/06/15 05:59:39;;;;;;;17.60;16.80;;;23.00;62.50;;;;;;5074088;28;20489;-66
2022/06/15 06:02:06;;;;;;;17.63;17.03;;;23.00;62.80;;;;;;5074222;28;21032;-67
2022/06/15 06:04:33;;;;;;;18.63;17.83;;;23.00;62.60;;;;;;5074536;28;20486;-66
2022/06/15 06:07:00;;;;;;;18.03;17.43;;;23.00;62.50;;;;;;5074365;28;20863;-67
2022/06/15 06:09:28;;;;;;;17.03;16.43;;;23.00;62.60;;;;;;5073986;28;20945;-66
2022/06/15 06:11:55;;;;;;;19.07;18.17;;;23.00;62.60;;;;;;5074427;28;20555;-66
2022/06/15 06:14:23;;;;;;;17.80;17.20;;;23.00;63.10;;;;;;5074373;28;20447;-66
2022/06/15 06:16:50;;;;;;;17.87;17.27;;;23.00;62.30;;;;;;5074269;28;20526;-67
2022/06/15 06:19:17;;;;;;;18.70;17.80;;;23.00;62.40;;;;;;5074135;28;20474;-66
2022/06/15 06:21:44;;;;;;;18.87;18.27;;;23.00;62.80;;;;;;5073623;28;20566;-67
2022/06/15 06:24:11;;;;;;;17.20;16.60;;;23.00;62.40;;;;;;5074319;28;20447;-66
2022/06/15 06:26:39;;;;;;;18.37;17.77;;;23.00;62.20;;;;;;5073107;28;20535;-67
2022/06/15 06:29:07;;;;;;;17.40;16.80;;;23.00;62.30;;;;;;5074129;28;20486;-66
2022/06/15 06:31:35;;;;;;;17.90;17.20;;;23.00;62.40;;;;;;5074094;28;20463;-66
2022/06/15 06:34:02;;;;;;;17.60;17.00;;;23.00;62.40;;;;;;5074251;28;20883;-66
2022/06/15 06:36:31;;;;;;;17.10;16.60;;;23.00;62.50;;;;;;5073750;28;20483;-66
2022/06/15 06:38:58;;;;;;;17.90;17.30;;;23.00;62.40;;;;;;5074187;28;20530;-66
2022/06/15 06:41:28;;;;;;;17.07;16.57;;;23.00;62.40;;;;;;5073541;28;20554;-67
2022/06/15 06:43:55;;;;;;;18.00;17.40;;;23.00;62.70;;;;;;5073827;28;20479;-66
2022/06/15 06:46:22;;;;;;;17.27;16.67;;;23.00;62.40;;;;;;5074042;28;20527;-66
2022/06/15 06:48:50;;;;;;;18.67;17.97;;;23.00;62.40;;;;;;5073471;28;20942;-67
2022/06/15 06:51:17;;;;;;;17.37;16.77;;;23.00;62.40;;;;;;5073141;28;21018;-67
2022/06/15 06:53:44;;;;;;;17.33;16.73;;;23.00;62.30;;;;;;5073700;28;20526;-66
2022/06/15 06:56:12;;;;;;;16.87;16.37;;;23.00;62.50;;;;;;5073435;28;20439;-66
2022/06/15 06:58:40;;;;;;;17.57;16.97;;;23.00;62.40;;;;;;5073251;28;20942;-66
2022/06/15 07:01:07;;;;;;;17.33;16.73;;;23.00;62.60;;;;;;5073005;28;20491;-66
2022/06/15 07:03:34;;;;;;;18.17;17.47;;;23.00;62.40;;;;;;5073975;28;20526;-66
2022/06/15 07:06:04;;;;;;;18.30;17.70;;;23.00;62.70;;;;;;5073437;28;20542;-66
2022/06/15 07:08:31;;;;;;;17.27;16.77;;;23.00;62.40;;;;;;5073532;28;20453;-66
2022/06/15 07:10:58;;;;;;;16.43;15.93;;;23.00;62.70;;;;;;5072917;28;20514;-66
2022/06/15 07:13:26;;;;;;;17.80;17.20;;;23.00;62.60;;;;;;5073148;28;20443;-67
2022/06/15 07:15:53;;;;;;;17.40;16.80;;;23.00;62.60;;;;;;5073355;28;20538;-66
2022/06/15 07:18:19;;;;;;;19.10;18.20;;;23.10;62.60;;;;;;5072892;28;20438;-66
2022/06/15 07:20:46;;;;;;;17.63;17.03;;;23.00;62.40;;;;;;5072600;28;20514;-67
2022/06/15 07:23:15;;;;;;;17.90;17.30;;;23.00;62.40;;;;;;5072928;28;20854;-66
2022/06/15 07:25:41;;;;;;;18.70;18.00;;;23.10;62.50;;;;;;5072956;28;20479;-66
2022/06/15 07:28:09;;;;;;;18.00;17.33;;;23.00;62.40;;;;;;5072668;28;20475;-66
2022/06/15 07:30:37;;;;;;;18.60;18.00;;;23.00;62.40;;;;;;5072524;28;20489;-66
2022/06/15 07:33:04;;;;;;;18.93;18.07;;;23.00;62.20;;;;;;5072606;28;21046;-66
2022/06/15 07:35:33;;;;;;;17.70;17.20;;;23.00;62.20;;;;;;5072573;28;20447;-66
2022/06/15 07:38:00;;;;;;;19.37;18.67;;;23.00;62.20;;;;;;5072221;28;20813;-66
2022/06/15 07:40:29;;;;;;;18.60;17.90;;;23.00;62.10;;;;;;5072527;28;21328;-66
2022/06/15 07:42:56;;;;;;;19.00;18.40;;;23.00;62.30;;;;;;5072677;28;20479;-67
2022/06/15 07:45:25;;;;;;;18.80;18.10;;;23.00;62.50;;;;;;5073258;28;20962;-66
2022/06/15 07:50:37;;;;;;;18.03;17.40;;;23.00;62.70;;;;;;5072287;28;20608;-66
2022/06/15 07:53:06;;;;;;;18.50;17.90;;;23.00;62.50;;;;;;5072653;28;20552;-66
2022/06/15 07:55:37;;;;;;;18.00;17.50;;;23.00;62.40;;;;;;5073217;28;20447;-67
2022/06/15 07:58:05;;;;;;;17.97;17.37;;;23.00;62.70;;;;;;5073870;28;20439;-67
2022/06/15 08:00:33;;;;;;;18.17;17.57;;;23.00;62.70;;;;;;5073643;28;20550;-67
2022/06/15 08:03:01;;;;;;;18.13;17.53;;;23.10;62.90;;;;;;5074942;28;20490;-66
2022/06/15 08:05:31;;;;;;;19.07;18.37;;;23.10;63.00;;;;;;5074614;28;20453;-66
2022/06/15 08:07:58;;;;;;;19.33;18.73;;;23.10;62.90;;;;;;5073717;28;20450;-66
2022/06/15 08:10:27;;;;;;;20.00;19.00;;;23.10;62.90;;;;;;5071799;28;21521;-66
2022/06/15 08:12:56;;;;;;;18.97;18.37;;;23.10;62.90;;;;;;5071837;28;20534;-67
2022/06/15 08:15:23;;;;;;;19.53;18.80;;;23.00;62.80;;;;;;5071786;28;20540;-67
2022/06/15 08:17:53;;;;;;;19.07;18.30;;;23.10;63.00;;;;;;5072550;28;20455;-67
2022/06/15 08:20:26;;;;;;;19.20;18.60;;;23.10;63.00;;;;;;5072608;28;20530;-66
2022/06/15 08:22:56;;;;;;;18.70;18.10;;;23.10;62.70;;;;;;5073078;28;20435;-66
2022/06/15 08:25:27;;;;;;;18.73;18.13;;;23.10;62.60;;;;;;5072624;28;20961;-67
2022/06/15 08:27:56;;;;;;;19.40;18.80;;;23.10;62.60;;;;;;5072438;28;20521;-68
2022/06/15 08:30:23;;;;;;;18.47;17.70;;;23.10;62.40;;;;;;5071835;28;20510;-67
2022/06/15 08:32:50;;;;;;;18.83;18.13;;;23.10;62.30;;;;;;5071817;28;20490;-66
2022/06/15 08:35:18;;;;;;;18.67;17.97;;;23.10;62.40;;;;;;5071892;28;20478;-66
2022/06/15 08:37:45;;;;;;;18.80;18.20;;;23.10;63.20;;;;;;5071884;28;20794;-66
2022/06/15 08:40:15;;;;;;;18.37;17.77;;;23.10;62.40;;;;;;5071405;28;20493;-67
2022/06/15 08:42:51;;;;;;;18.80;18.20;;;23.10;62.50;;;;;;5071712;28;20783;-67
2022/06/15 08:45:26;;;;;;;18.30;17.70;;;23.10;62.50;;;;;;5071966;28;20538;-67
2022/06/15 08:48:29;;;;;;;18.10;17.40;;;23.10;62.70;;;;;;5071454;28;20812;-67
2022/06/15 08:50:59;;;;;;;18.73;18.03;;;23.10;62.60;;;;;;5066982;28;20483;-67
2022/06/15 08:53:35;;;;;;;18.07;17.57;;;23.10;63.00;;;;;;5075578;28;20525;-67
2022/06/15 08:56:06;;;;;;;18.00;17.40;;;23.10;62.90;;;;;;5075444;28;20525;-67
2022/06/15 08:58:42;;;;;;;18.00;17.47;;;23.10;62.90;;;;;;5075491;28;20809;-67
2022/06/15 09:01:27;;;;;;;18.40;17.70;;;23.10;63.00;;;;;;5075099;28;20896;-67
2022/06/15 09:04:01;;;;;;;17.70;17.20;;;23.10;63.40;;;;;;5075409;28;21003;-67
2022/06/15 09:06:39;;;;;;;19.23;18.53;;;23.20;63.40;;;;;;5075984;28;20489;-67
2022/06/15 09:09:23;;;;;;;18.83;18.13;;;23.10;63.80;;;;;;5075234;28;20478;-67
2022/06/15 09:14:59;;;;;;;18.83;18.13;;;23.10;63.70;;;;;;5075176;28;20422;-67
2022/06/15 09:17:30;;;;;;;19.67;18.97;;;23.10;64.10;;;;;;5075103;28;20482;-67
2022/06/15 09:20:03;;;;;;;19.77;19.07;;;23.20;63.60;;;;;;5075004;28;20526;-67
2022/06/15 09:22:35;;;;;;;17.80;17.30;;;23.20;63.50;;;;;;5075512;28;20959;-68
2022/06/15 09:25:10;;;;;;;18.40;17.80;;;23.20;63.40;;;;;;5074954;28;20447;-68
2022/06/15 09:27:41;;;;;;;18.53;17.93;;;23.20;63.50;;;;;;5075014;28;20525;-68
2022/06/15 09:30:12;;;;;;;18.50;17.90;;;23.20;63.70;;;;;;5074480;28;20867;-68
2022/06/15 09:32:43;;;;;;;19.50;18.90;;;23.20;63.70;;;;;;5074838;28;20444;-68
2022/06/15 09:35:16;;;;;;;18.60;18.00;;;23.20;63.70;;;;;;5074768;28;20447;-68
2022/06/15 09:37:46;;;;;;;18.10;17.50;;;23.20;63.90;;;;;;5074808;28;20449;-68
2022/06/15 09:40:14;;;;;;;19.00;18.40;;;23.20;65.00;;;;;;5074368;28;20886;-68
2022/06/15 09:42:51;;;;;;;19.10;18.50;;;23.20;64.70;;;;;;5074470;28;20451;-69
2022/06/15 09:45:28;;;;;;;18.60;18.00;;;23.20;63.90;;;;;;5074551;28;20995;-68
2022/06/15 09:48:06;;;;;;;17.30;16.73;;;23.20;63.70;;;;;;5074427;28;20466;-68
2022/06/15 09:50:38;;;;;;;18.20;17.60;;;23.30;63.80;;;;;;5074039;28;20544;-68
2022/06/15 09:53:18;;;;;;;18.80;18.10;;;23.30;63.80;;;;;;5074321;28;20500;-67
2022/06/15 09:55:48;;;;;;;18.73;18.13;;;23.30;63.80;;;;;;5074420;28;20454;-68
2022/06/15 09:58:20;;;;;;;18.03;17.53;;;23.30;63.70;;;;;;5074381;28;20871;-68
2022/06/15 10:00:49;;;;;;;19.40;18.73;;;23.30;63.70;;;;;;5073784;28;20490;-68
2022/06/15 10:03:24;;;;;;;18.10;17.60;;;23.30;63.70;;;;;;5074168;28;20475;-68
2022/06/15 10:05:54;;;;;;;18.40;17.80;;;23.30;63.70;;;;;;5074174;28;20478;-68
2022/06/15 10:08:21;;;;;;;18.10;17.60;;;23.30;63.80;;;;;;5074153;28;20439;-68
2022/06/15 10:10:52;;;;;;;18.00;17.40;;;23.30;63.80;;;;;;5073641;28;20486;-68
2022/06/15 10:13:31;;;;;;;17.73;17.23;;;23.30;63.90;;;;;;5074006;28;20475;-68
2022/06/15 10:15:59;;;;;;;17.77;17.27;;;23.30;63.90;;;;;;5073932;28;20531;-68
2022/06/15 10:18:35;;;;;;;17.73;17.03;;;23.30;63.90;;;;;;5073971;28;20958;-68
2022/06/15 10:21:07;;;;;;;18.50;17.90;;;23.30;63.80;;;;;;5073429;28;20474;-68
2022/06/15 10:23:51;;;;;;;17.80;17.20;;;23.30;63.90;;;;;;5073862;28;20439;-68
2022/06/15 10:26:34;;;;;;;17.63;17.03;;;23.30;63.80;;;;;;5073916;28;20467;-68
2022/06/15 10:29:22;;;;;;;18.43;17.83;;;23.30;63.70;;;;;;5074133;28;20477;-68
2022/06/15 10:32:01;;;;;;;18.87;18.17;;;23.30;63.90;;;;;;5073408;28;20490;-68
2022/06/15 10:34:31;;;;;;;18.40;17.80;;;23.30;64.50;;;;;;5073664;28;20500;-68
2022/06/15 10:37:01;;;;;;;17.77;17.17;;;23.40;63.70;;;;;;5073596;28;20530;-68
2022/06/15 10:39:31;;;;;;;18.27;17.67;;;23.40;63.60;;;;;;5073545;28;20447;-68
2022/06/15 10:42:06;;;;;;;18.13;17.43;;;23.40;63.30;;;;;;5073609;28;20494;-67
2022/06/15 10:44:36;;;;;;;18.63;18.03;;;23.40;62.90;;;;;;5073535;28;20530;-68
2022/06/15 10:47:06;;;;;;;18.40;17.80;;;23.40;62.60;;;;;;5073568;28;20818;-68
2022/06/15 10:49:36;;;;;;;18.23;17.63;;;23.40;62.60;;;;;;5073141;28;20443;-67
2022/06/15 10:52:16;;;;;;;18.83;18.23;;;23.40;62.60;;;;;;5073137;28;20479;-68
2022/06/15 11:03:17;;;;;;;17.63;17.03;;;23.40;62.80;;;;;;5073210;28;20460;-68
2022/06/15 11:05:47;;;;;;;17.40;16.90;;;23.40;62.80;;;;;;5073175;28;20872;-68
2022/06/15 11:08:18;;;;;;;17.77;17.17;;;23.40;63.10;;;;;;5072979;28;20998;-67
2022/06/15 11:10:47;;;;;;;18.20;17.60;;;23.40;63.20;;;;;;5072631;28;20483;-68
2022/06/15 11:13:34;;;;;;;18.50;17.90;;;23.50;63.10;;;;;;5072130;28;20539;-68
2022/06/15 11:19:06;;;;;;;18.53;17.93;;;23.50;63.60;;;;;;5072874;28;20418;-68
2022/06/15 11:21:40;;;;;;;18.67;18.07;;;23.50;63.10;;;;;;5072269;28;20548;-68
2022/06/15 11:24:15;;;;;;;17.53;17.03;;;23.50;63.00;;;;;;5072651;28;20802;-68
2022/06/15 11:26:53;;;;;;;17.60;17.07;;;23.50;63.20;;;;;;5072600;28;20972;-68
2022/06/15 11:29:42;;;;;;;18.70;17.87;;;23.50;63.10;;;;;;5072584;28;20442;-68
2022/06/15 11:32:21;;;;;;;17.30;16.80;;;23.50;62.90;;;;;;5072231;28;20491;-68
2022/06/15 11:34:56;;;;;;;17.50;17.00;;;23.50;62.60;;;;;;5072432;28;20534;-68
2022/06/15 11:37:29;;;;;;;17.90;17.30;;;23.50;62.70;;;;;;5072417;28;20467;-67
2022/06/15 11:40:02;;;;;;;18.70;18.10;;;23.60;62.70;;;;;;5072210;28;20450;-68
2022/06/15 11:42:29;;;;;;;18.03;17.53;;;23.60;62.70;;;;;;5072195;28;20463;-68
2022/06/15 11:44:56;;;;;;;18.43;17.83;;;23.60;62.60;;;;;;5072201;28;20533;-68
2022/06/15 11:47:34;;;;;;;18.17;17.57;;;23.50;62.40;;;;;;5072091;28;20490;-68
2022/06/15 11:50:10;;;;;;;23.37;22.57;;;23.60;62.60;;;;;;5072051;28;20525;-68
2022/06/15 11:52:51;;;;;;;18.80;18.20;;;23.60;62.20;;;;;;5071951;28;20485;-68
2022/06/15 11:55:28;;;;;;;18.43;17.83;;;23.60;62.30;;;;;;5072029;28;20525;-68
2022/06/15 11:58:18;;;;;;;19.63;18.83;;;23.60;62.20;;;;;;5072082;28;20530;-68
2022/06/15 12:00:55;;;;;;;18.10;17.60;;;23.60;62.30;;;;;;5071720;28;20734;-68
2022/06/15 12:03:45;;;;;;;18.60;18.00;;;23.60;62.20;;;;;;5072005;28;20471;-68
2022/06/15 12:06:22;;;;;;;18.47;17.87;;;23.60;62.10;;;;;;5071876;28;20475;-68
2022/06/15 12:08:59;;;;;;;18.03;17.53;;;23.60;62.10;;;;;;5071905;28;20492;-68
2022/06/15 12:14:33;;;;;;;19.40;18.80;;;23.70;62.20;;;;;;5071872;28;20534;-68
2022/06/15 12:17:04;;;;;;;18.80;18.20;;;23.70;62.00;;;;;;5071909;28;20454;-68
2022/06/15 12:19:37;;;;;;;18.20;17.70;;;23.70;62.00;;;;;;5071564;28;20475;-68
2022/06/15 12:22:11;;;;;;;18.37;17.80;;;23.70;61.90;;;;;;5071410;28;20478;-68
2022/06/15 12:24:47;;;;;;;19.00;18.40;;;23.70;61.90;;;;;;5071755;28;20451;-68
2022/06/15 12:27:19;;;;;;;18.40;17.90;;;23.70;61.60;;;;;;5071626;28;20474;-68
2022/06/15 12:29:52;;;;;;;18.13;17.63;;;23.80;61.60;;;;;;5071530;28;20475;-68
2022/06/15 12:32:33;;;;;;;18.40;17.80;;;23.80;61.60;;;;;;5071309;28;20579;-68
2022/06/15 12:35:16;;;;;;;17.57;16.93;;;23.80;61.60;;;;;;5071622;28;20539;-68
2022/06/15 12:37:48;;;;;;;17.80;17.20;;;23.80;61.60;;;;;;5071538;28;20538;-68
2022/06/15 12:40:22;;;;;;;17.50;17.00;;;23.80;61.50;;;;;;5071200;28;20452;-68
2022/06/15 12:42:52;;;;;;;17.20;16.70;;;23.80;62.10;;;;;;5071474;28;20491;-68
2022/06/15 12:45:23;;;;;;;18.60;17.70;;;23.80;61.40;;;;;;5071481;28;20449;-68
2022/06/15 12:47:54;;;;;;;18.10;17.50;;;23.80;61.40;;;;;;5071478;28;20471;-68
2022/06/15 12:50:40;;;;;;;18.27;17.67;;;23.80;62.10;;;;;;5071138;28;20927;-68
2022/06/15 12:53:20;;;;;;;17.57;17.07;;;23.80;61.30;;;;;;5071327;28;20566;-68
2022/06/15 12:55:54;;;;;;;17.93;17.33;;;23.90;61.40;;;;;;5071377;28;20833;-68
2022/06/15 12:58:29;;;;;;;18.10;17.50;;;23.90;61.30;;;;;;5071308;28;21006;-68
2022/06/15 13:01:01;;;;;;;17.67;17.17;;;23.90;61.20;;;;;;5071039;28;20554;-68
2022/06/15 13:03:54;;;;;;;18.50;17.80;;;23.90;61.00;;;;;;5071352;28;20501;-68
2022/06/15 13:06:25;;;;;;;17.00;16.50;;;23.90;61.10;;;;;;5071280;28;20950;-68
2022/06/15 13:09:06;;;;;;;16.77;16.27;;;23.90;61.10;;;;;;5071243;28;20534;-68